sensor_id;sensor_type;location;lat;lon;timestamp;pressure;altitude;pressure_sealevel;temperature;humidity
21826;BME280;11075;47.944;11.776;2023-02-22T00:00:44;94699.97;;;9.86;20.58
21826;BME280;11075;47.944;11.776;2023-02-22T00:05:43;94703.00;;;8.51;21.62
21826;BME280;11075;47.944;11.776;2023-02-22T00:08:14;94684.63;;;7.77;22.91
21826;BME280;11075;47.944;11.776;2023-02-22T00:10:43;94692.38;;;8.63;21.48
21826;BME280;11075;47.944;11.776;2023-02-22T00:13:12;94696.06;;;8.50;21.76
21826;BME280;11075;47.944;11.776;2023-02-22T00:15:39;94706.06;;;9.95;20.10
21826;BME280;11075;47.944;11.776;2023-02-22T00:18:09;94706.28;;;9.15;20.91
21826;BME280;11075;47.944;11.776;2023-02-22T00:20:39;94702.13;;;8.97;20.97
21826;BME280;11075;47.944;11.776;2023-02-22T00:23:12;94693.00;;;8.31;21.80
21826;BME280;11075;47.944;11.776;2023-02-22T00:25:39;94690.72;;;8.79;21.08
21826;BME280;11075;47.944;11.776;2023-02-22T00:28:07;94693.94;;;9.35;20.96
21826;BME280;11075;47.944;11.776;2023-02-22T00:30:33;94699.31;;;9.56;20.62
21826;BME280;11075;47.944;11.776;2023-02-22T00:33:00;94706.72;;;9.17;21.30
21826;BME280;11075;47.944;11.776;2023-02-22T00:35:29;94686.34;;;6.60;23.80
21826;BME280;11075;47.944;11.776;2023-02-22T00:37:59;94704.16;;;9.00;20.78
21826;BME280;11075;47.944;11.776;2023-02-22T00:40:32;94703.00;;;9.10;20.93
21826;BME280;11075;47.944;11.776;2023-02-22T00:43:00;94694.34;;;7.99;21.82
21826;BME280;11075;47.944;11.776;2023-02-22T00:45:29;94694.22;;;8.42;21.81
21826;BME280;11075;47.944;11.776;2023-02-22T00:47:57;94691.13;;;8.22;22.24
21826;BME280;11075;47.944;11.776;2023-02-22T00:50:26;94690.69;;;7.31;22.50
21826;BME280;11075;47.944;11.776;2023-02-22T00:52:54;94678.31;;;6.60;23.64
21826;BME280;11075;47.944;11.776;2023-02-22T00:55:28;94664.63;;;6.22;24.08
21826;BME280;11075;47.944;11.776;2023-02-22T00:57:57;94653.44;;;3.27;28.05
21826;BME280;11075;47.944;11.776;2023-02-22T01:02:51;94664.78;;;6.66;23.26
21826;BME280;11075;47.944;11.776;2023-02-22T01:05:21;94635.53;;;3.46;26.93
21826;BME280;11075;47.944;11.776;2023-02-22T01:07:52;94664.34;;;7.50;22.10
21826;BME280;11075;47.944;11.776;2023-02-22T01:10:21;94654.03;;;6.40;23.09
21826;BME280;11075;47.944;11.776;2023-02-22T01:12:48;94640.72;;;4.38;26.12
21826;BME280;11075;47.944;11.776;2023-02-22T01:15:18;94659.38;;;7.78;21.72
21826;BME280;11075;47.944;11.776;2023-02-22T01:17:48;94668.44;;;7.56;22.03
21826;BME280;11075;47.944;11.776;2023-02-22T01:20:16;94662.84;;;6.40;22.84
21826;BME280;11075;47.944;11.776;2023-02-22T01:22:46;94641.25;;;5.97;23.56
21826;BME280;11075;47.944;11.776;2023-02-22T01:25:22;94637.03;;;4.76;25.40
21826;BME280;11075;47.944;11.776;2023-02-22T01:27:50;94623.38;;;4.77;25.93
21826;BME280;11075;47.944;11.776;2023-02-22T01:30:24;94625.81;;;5.10;24.84
21826;BME280;11075;47.944;11.776;2023-02-22T01:32:52;94624.16;;;4.78;25.79
21826;BME280;11075;47.944;11.776;2023-02-22T01:35:22;94628.56;;;5.18;24.80
21826;BME280;11075;47.944;11.776;2023-02-22T01:37:50;94612.72;;;2.94;28.10
21826;BME280;11075;47.944;11.776;2023-02-22T01:40:22;94616.88;;;4.69;25.39
21826;BME280;11075;47.944;11.776;2023-02-22T01:42:52;94616.31;;;3.63;26.68
21826;BME280;11075;47.944;11.776;2023-02-22T01:51:18;94624.59;;;6.48;23.46
21826;BME280;11075;47.944;11.776;2023-02-22T01:53:56;94634.66;;;6.43;23.32
21826;BME280;11075;47.944;11.776;2023-02-22T01:56:25;94625.59;;;5.51;24.13
21826;BME280;11075;47.944;11.776;2023-02-22T01:58:58;94627.44;;;6.52;22.84
21826;BME280;11075;47.944;11.776;2023-02-22T02:01:27;94621.63;;;5.17;24.63
21826;BME280;11075;47.944;11.776;2023-02-22T02:03:57;94608.72;;;3.56;26.34
21826;BME280;11075;47.944;11.776;2023-02-22T02:06:26;94600.22;;;4.36;25.82
21826;BME280;11075;47.944;11.776;2023-02-22T02:11:44;94594.91;;;5.17;24.87
21826;BME280;11075;47.944;11.776;2023-02-22T02:14:12;94584.44;;;4.26;25.87
21826;BME280;11075;47.944;11.776;2023-02-22T02:16:46;94579.03;;;4.67;25.67
21826;BME280;11075;47.944;11.776;2023-02-22T02:19:57;94580.44;;;5.41;24.87
21826;BME280;11075;47.944;11.776;2023-02-22T02:22:46;94582.53;;;4.99;25.21
21826;BME280;11075;47.944;11.776;2023-02-22T02:36:55;94576.38;;;5.43;24.29
21826;BME280;11075;47.944;11.776;2023-02-22T02:42:11;94574.19;;;3.65;26.21
21826;BME280;11075;47.944;11.776;2023-02-22T02:44:50;94570.53;;;5.72;23.79
21826;BME280;11075;47.944;11.776;2023-02-22T02:47:23;94568.97;;;4.87;24.48
21826;BME280;11075;47.944;11.776;2023-02-22T02:50:05;94563.91;;;5.39;24.45
21826;BME280;11075;47.944;11.776;2023-02-22T02:52:36;94561.91;;;5.44;24.04
21826;BME280;11075;47.944;11.776;2023-02-22T02:55:06;94553.47;;;4.75;25.49
21826;BME280;11075;47.944;11.776;2023-02-22T02:57:33;94537.94;;;5.30;24.93
21826;BME280;11075;47.944;11.776;2023-02-22T03:00:00;94533.44;;;3.64;26.74
21826;BME280;11075;47.944;11.776;2023-02-22T03:11:28;94528.16;;;6.05;24.52
21826;BME280;11075;47.944;11.776;2023-02-22T03:14:22;94531.81;;;6.26;24.32
21826;BME280;11075;47.944;11.776;2023-02-22T03:17:17;94513.31;;;5.73;24.72
21826;BME280;11075;47.944;11.776;2023-02-22T03:19:50;94519.09;;;6.84;23.67
21826;BME280;11075;47.944;11.776;2023-02-22T03:22:36;94509.34;;;6.45;24.39
21826;BME280;11075;47.944;11.776;2023-02-22T03:25:16;94514.97;;;6.86;23.88
21826;BME280;11075;47.944;11.776;2023-02-22T03:27:51;94521.66;;;7.36;22.99
21826;BME280;11075;47.944;11.776;2023-02-22T03:30:32;94504.91;;;6.31;24.37
21826;BME280;11075;47.944;11.776;2023-02-22T03:33:06;94521.78;;;5.35;24.99
21826;BME280;11075;47.944;11.776;2023-02-22T03:35:43;94519.66;;;7.15;23.50
21826;BME280;11075;47.944;11.776;2023-02-22T03:38:15;94510.59;;;6.64;24.15
21826;BME280;11075;47.944;11.776;2023-02-22T03:40:49;94506.38;;;5.01;25.39
21826;BME280;11075;47.944;11.776;2023-02-22T03:43:22;94515.50;;;6.45;24.00
21826;BME280;11075;47.944;11.776;2023-02-22T03:45:54;94505.81;;;5.13;25.26
21826;BME280;11075;47.944;11.776;2023-02-22T03:51:05;94500.19;;;3.34;28.07
21826;BME280;11075;47.944;11.776;2023-02-22T03:53:33;94517.84;;;6.47;24.42
21826;BME280;11075;47.944;11.776;2023-02-22T03:56:06;94517.75;;;4.26;27.25
21826;BME280;11075;47.944;11.776;2023-02-22T03:58:37;94528.94;;;5.97;25.53
21826;BME280;11075;47.944;11.776;2023-02-22T04:01:06;94526.72;;;4.66;26.44
21826;BME280;11075;47.944;11.776;2023-02-22T04:03:33;94531.06;;;3.49;26.99
21826;BME280;11075;47.944;11.776;2023-02-22T04:06:00;94532.81;;;3.26;26.99
21826;BME280;11075;47.944;11.776;2023-02-22T04:08:28;94538.63;;;5.76;24.02
21826;BME280;11075;47.944;11.776;2023-02-22T04:10:55;94549.91;;;7.24;22.29
21826;BME280;11075;47.944;11.776;2023-02-22T04:13:25;94551.84;;;8.30;21.08
21826;BME280;11075;47.944;11.776;2023-02-22T04:15:53;94556.09;;;8.51;21.10
21826;BME280;11075;47.944;11.776;2023-02-22T04:18:21;94563.97;;;6.95;22.36
21826;BME280;11075;47.944;11.776;2023-02-22T04:20:48;94549.03;;;6.69;22.98
21826;BME280;11075;47.944;11.776;2023-02-22T04:23:48;94553.06;;;8.11;21.57
21826;BME280;11075;47.944;11.776;2023-02-22T04:26:16;94553.94;;;9.07;20.52
21826;BME280;11075;47.944;11.776;2023-02-22T04:28:49;94555.06;;;8.44;20.98
21826;BME280;11075;47.944;11.776;2023-02-22T04:31:17;94564.28;;;9.17;20.36
21826;BME280;11075;47.944;11.776;2023-02-22T04:33:44;94549.34;;;6.58;23.21
21826;BME280;11075;47.944;11.776;2023-02-22T04:36:14;94539.09;;;6.52;23.26
21826;BME280;11075;47.944;11.776;2023-02-22T04:38:43;94542.81;;;5.59;24.19
21826;BME280;11075;47.944;11.776;2023-02-22T04:41:11;94533.91;;;5.42;24.56
21826;BME280;11075;47.944;11.776;2023-02-22T04:43:38;94550.53;;;7.13;22.50
21826;BME280;11075;47.944;11.776;2023-02-22T04:46:20;94538.09;;;6.13;23.35
21826;BME280;11075;47.944;11.776;2023-02-22T04:48:46;94535.09;;;7.10;22.36
21826;BME280;11075;47.944;11.776;2023-02-22T04:51:15;94538.69;;;7.40;22.19
21826;BME280;11075;47.944;11.776;2023-02-22T04:54:02;94523.78;;;4.54;25.71
21826;BME280;11075;47.944;11.776;2023-02-22T04:56:31;94517.00;;;4.93;24.91
21826;BME280;11075;47.944;11.776;2023-02-22T04:58:59;94536.09;;;6.88;22.37
21826;BME280;11075;47.944;11.776;2023-02-22T05:01:30;94525.03;;;5.55;24.31
21826;BME280;11075;47.944;11.776;2023-02-22T05:03:57;94515.28;;;3.53;26.64
21826;BME280;11075;47.944;11.776;2023-02-22T05:06:24;94501.66;;;3.82;26.70
21826;BME280;11075;47.944;11.776;2023-02-22T05:08:51;94509.94;;;3.39;26.61
21826;BME280;11075;47.944;11.776;2023-02-22T05:11:18;94495.31;;;3.09;27.14
21826;BME280;11075;47.944;11.776;2023-02-22T05:13:45;94493.06;;;5.10;25.02
21826;BME280;11075;47.944;11.776;2023-02-22T05:16:12;94505.09;;;3.96;25.19
21826;BME280;11075;47.944;11.776;2023-02-22T05:18:40;94497.81;;;3.74;26.26
21826;BME280;11075;47.944;11.776;2023-02-22T05:21:07;94511.91;;;5.76;23.63
21826;BME280;11075;47.944;11.776;2023-02-22T05:23:33;94496.69;;;4.83;25.02
21826;BME280;11075;47.944;11.776;2023-02-22T05:26:00;94495.63;;;3.62;26.12
21826;BME280;11075;47.944;11.776;2023-02-22T05:28:27;94490.84;;;4.36;25.72
21826;BME280;11075;47.944;11.776;2023-02-22T05:30:54;94508.00;;;5.90;23.19
21826;BME280;11075;47.944;11.776;2023-02-22T05:33:21;94517.81;;;6.21;22.66
21826;BME280;11075;47.944;11.776;2023-02-22T05:35:48;94517.81;;;6.38;22.88
21826;BME280;11075;47.944;11.776;2023-02-22T05:38:15;94493.69;;;4.18;25.32
21826;BME280;11075;47.944;11.776;2023-02-22T05:40:42;94485.75;;;3.90;25.39
21826;BME280;11075;47.944;11.776;2023-02-22T05:43:09;94502.91;;;5.63;23.79
21826;BME280;11075;47.944;11.776;2023-02-22T05:45:36;94505.00;;;5.44;23.78
21826;BME280;11075;47.944;11.776;2023-02-22T05:48:03;94497.16;;;4.40;24.86
21826;BME280;11075;47.944;11.776;2023-02-22T05:50:30;94500.19;;;6.20;23.01
21826;BME280;11075;47.944;11.776;2023-02-22T05:52:59;94513.34;;;7.11;21.84
21826;BME280;11075;47.944;11.776;2023-02-22T05:55:26;94505.09;;;5.30;23.75
21826;BME280;11075;47.944;11.776;2023-02-22T05:57:53;94492.09;;;3.26;26.80
21826;BME280;11075;47.944;11.776;2023-02-22T06:00:23;94502.56;;;5.56;23.72
21826;BME280;11075;47.944;11.776;2023-02-22T06:02:58;94517.50;;;6.83;22.18
21826;BME280;11075;47.944;11.776;2023-02-22T06:05:26;94517.66;;;6.35;22.25
21826;BME280;11075;47.944;11.776;2023-02-22T06:07:54;94522.41;;;5.32;23.42
21826;BME280;11075;47.944;11.776;2023-02-22T06:10:22;94498.59;;;3.33;26.29
21826;BME280;11075;47.944;11.776;2023-02-22T06:12:49;94496.13;;;4.95;23.90
21826;BME280;11075;47.944;11.776;2023-02-22T06:15:18;94516.88;;;4.98;23.29
21826;BME280;11075;47.944;11.776;2023-02-22T06:17:48;94518.97;;;5.41;23.64
21826;BME280;11075;47.944;11.776;2023-02-22T06:20:18;94522.63;;;5.84;23.01
21826;BME280;11075;47.944;11.776;2023-02-22T06:22:49;94526.78;;;5.59;22.66
21826;BME280;11075;47.944;11.776;2023-02-22T06:25:18;94512.03;;;5.00;23.93
21826;BME280;11075;47.944;11.776;2023-02-22T06:27:45;94525.19;;;6.15;22.84
21826;BME280;11075;47.944;11.776;2023-02-22T06:30:14;94526.66;;;6.56;22.23
21826;BME280;11075;47.944;11.776;2023-02-22T06:32:41;94522.41;;;4.21;24.73
21826;BME280;11075;47.944;11.776;2023-02-22T06:35:08;94529.06;;;5.83;23.24
21826;BME280;11075;47.944;11.776;2023-02-22T06:37:35;94542.13;;;8.16;20.52
21826;BME280;11075;47.944;11.776;2023-02-22T06:40:02;94542.13;;;7.49;21.44
21826;BME280;11075;47.944;11.776;2023-02-22T06:42:31;94539.84;;;7.68;21.52
21826;BME280;11075;47.944;11.776;2023-02-22T06:44:58;94546.91;;;8.82;20.46
21826;BME280;11075;47.944;11.776;2023-02-22T06:47:25;94553.09;;;8.32;20.90
21826;BME280;11075;47.944;11.776;2023-02-22T06:49:56;94543.91;;;4.96;23.77
21826;BME280;11075;47.944;11.776;2023-02-22T06:52:23;94548.84;;;6.82;22.37
21826;BME280;11075;47.944;11.776;2023-02-22T06:54:50;94521.91;;;3.69;25.97
21826;BME280;11075;47.944;11.776;2023-02-22T06:57:17;94548.41;;;5.80;23.19
21826;BME280;11075;47.944;11.776;2023-02-22T06:59:44;94553.25;;;7.98;21.30
21826;BME280;11075;47.944;11.776;2023-02-22T07:02:12;94558.25;;;8.16;21.23
21826;BME280;11075;47.944;11.776;2023-02-22T07:04:40;94560.31;;;8.61;20.87
21826;BME280;11075;47.944;11.776;2023-02-22T07:07:09;94559.16;;;8.20;21.15
21826;BME280;11075;47.944;11.776;2023-02-22T07:09:36;94555.38;;;7.45;22.12
21826;BME280;11075;47.944;11.776;2023-02-22T07:12:03;94541.00;;;5.77;23.85
21826;BME280;11075;47.944;11.776;2023-02-22T07:14:30;94533.72;;;3.90;26.47
21826;BME280;11075;47.944;11.776;2023-02-22T07:16:57;94525.78;;;4.49;26.14
21826;BME280;11075;47.944;11.776;2023-02-22T07:19:24;94526.25;;;4.87;25.40
21826;BME280;11075;47.944;11.776;2023-02-22T07:21:50;94527.19;;;7.31;23.38
21826;BME280;11075;47.944;11.776;2023-02-22T07:24:26;94553.09;;;8.74;21.69
21826;BME280;11075;47.944;11.776;2023-02-22T07:26:56;94548.78;;;7.34;23.18
21826;BME280;11075;47.944;11.776;2023-02-22T07:29:23;94538.09;;;8.94;21.73
21826;BME280;11075;47.944;11.776;2023-02-22T07:31:49;94530.94;;;7.47;23.59
21826;BME280;11075;47.944;11.776;2023-02-22T07:34:17;94542.44;;;8.86;22.39
21826;BME280;11075;47.944;11.776;2023-02-22T07:36:43;94541.69;;;8.56;22.59
21826;BME280;11075;47.944;11.776;2023-02-22T07:39:11;94529.84;;;8.78;22.08
21826;BME280;11075;47.944;11.776;2023-02-22T07:41:38;94519.81;;;7.10;24.27
21826;BME280;11075;47.944;11.776;2023-02-22T07:44:17;94524.66;;;9.27;22.02
21826;BME280;11075;47.944;11.776;2023-02-22T07:46:48;94531.00;;;10.28;21.18
21826;BME280;11075;47.944;11.776;2023-02-22T07:49:16;94520.34;;;10.07;21.69
21826;BME280;11075;47.944;11.776;2023-02-22T07:51:44;94495.91;;;5.45;26.63
21826;BME280;11075;47.944;11.776;2023-02-22T07:54:11;94501.34;;;8.02;24.63
21826;BME280;11075;47.944;11.776;2023-02-22T07:56:44;94493.38;;;8.56;23.92
21826;BME280;11075;47.944;11.776;2023-02-22T07:59:11;94526.06;;;13.29;19.15
21826;BME280;11075;47.944;11.776;2023-02-22T08:01:39;94545.94;;;12.28;19.77
21826;BME280;11075;47.944;11.776;2023-02-22T08:04:06;94533.69;;;13.24;19.46
21826;BME280;11075;47.944;11.776;2023-02-22T08:06:33;94528.25;;;11.80;20.93
21826;BME280;11075;47.944;11.776;2023-02-22T08:09:00;94528.53;;;12.26;20.98
21826;BME280;11075;47.944;11.776;2023-02-22T08:11:27;94539.59;;;15.04;18.64
21826;BME280;11075;47.944;11.776;2023-02-22T08:13:54;94539.31;;;16.41;17.55
21826;BME280;11075;47.944;11.776;2023-02-22T08:16:21;94540.44;;;15.85;18.40
21826;BME280;11075;47.944;11.776;2023-02-22T08:18:47;94559.97;;;17.15;16.64
21826;BME280;11075;47.944;11.776;2023-02-22T08:21:15;94553.81;;;17.39;16.86
21826;BME280;11075;47.944;11.776;2023-02-22T08:23:44;94558.22;;;18.47;16.07
21826;BME280;11075;47.944;11.776;2023-02-22T08:26:11;94560.94;;;18.15;16.45
21826;BME280;11075;47.944;11.776;2023-02-22T08:28:47;94576.91;;;18.59;15.06
21826;BME280;11075;47.944;11.776;2023-02-22T08:31:14;94582.75;;;18.22;15.41
21826;BME280;11075;47.944;11.776;2023-02-22T08:33:42;94579.22;;;18.71;15.62
21826;BME280;11075;47.944;11.776;2023-02-22T08:36:09;94559.81;;;16.87;17.30
21826;BME280;11075;47.944;11.776;2023-02-22T08:38:36;94551.53;;;15.33;18.23
21826;BME280;11075;47.944;11.776;2023-02-22T08:41:03;94533.88;;;12.06;20.47
21826;BME280;11075;47.944;11.776;2023-02-22T08:43:30;94545.56;;;15.94;17.80
21826;BME280;11075;47.944;11.776;2023-02-22T08:45:58;94570.69;;;13.81;17.67
21826;BME280;11075;47.944;11.776;2023-02-22T08:48:25;94589.16;;;19.42;13.33
21826;BME280;11075;47.944;11.776;2023-02-22T08:50:52;94571.00;;;20.39;14.32
21826;BME280;11075;47.944;11.776;2023-02-22T08:53:19;94603.81;;;22.86;11.92
21826;BME280;11075;47.944;11.776;2023-02-22T08:55:46;94603.94;;;22.79;12.04
21826;BME280;11075;47.944;11.776;2023-02-22T08:58:13;94589.09;;;22.73;12.94
21826;BME280;11075;47.944;11.776;2023-02-22T09:00:41;94606.44;;;21.93;12.43
21826;BME280;11075;47.944;11.776;2023-02-22T09:03:12;94612.81;;;23.30;11.97
21826;BME280;11075;47.944;11.776;2023-02-22T09:05:41;94604.59;;;18.33;14.01
21826;BME280;11075;47.944;11.776;2023-02-22T09:08:08;94608.84;;;21.91;12.65
21826;BME280;11075;47.944;11.776;2023-02-22T09:10:36;94618.59;;;21.31;12.99
21826;BME280;11075;47.944;11.776;2023-02-22T09:13:03;94617.81;;;18.63;13.86
21826;BME280;11075;47.944;11.776;2023-02-22T09:15:31;94582.72;;;17.76;15.95
21826;BME280;11075;47.944;11.776;2023-02-22T09:17:59;94599.25;;;19.56;13.88
21826;BME280;11075;47.944;11.776;2023-02-22T09:20:27;94604.22;;;17.05;15.22
21826;BME280;11075;47.944;11.776;2023-02-22T09:22:54;94593.16;;;16.73;15.10
21826;BME280;11075;47.944;11.776;2023-02-22T09:25:22;94595.13;;;16.79;14.70
21826;BME280;11075;47.944;11.776;2023-02-22T09:27:50;94596.81;;;15.99;15.67
21826;BME280;11075;47.944;11.776;2023-02-22T09:30:29;94591.66;;;16.82;14.68
21826;BME280;11075;47.944;11.776;2023-02-22T09:33:04;94579.22;;;15.45;16.37
21826;BME280;11075;47.944;11.776;2023-02-22T09:35:32;94580.22;;;19.34;14.38
21826;BME280;11075;47.944;11.776;2023-02-22T09:38:04;94596.41;;;17.00;14.97
21826;BME280;11075;47.944;11.776;2023-02-22T09:40:37;94589.41;;;16.99;15.04
21826;BME280;11075;47.944;11.776;2023-02-22T09:43:26;94613.53;;;15.61;13.93
21826;BME280;11075;47.944;11.776;2023-02-22T09:46:00;94587.75;;;14.08;16.15
21826;BME280;11075;47.944;11.776;2023-02-22T09:48:35;94588.94;;;18.76;13.88
21826;BME280;11075;47.944;11.776;2023-02-22T09:51:13;94583.91;;;17.93;14.06
21826;BME280;11075;47.944;11.776;2023-02-22T09:53:44;94585.31;;;17.33;14.39
21826;BME280;11075;47.944;11.776;2023-02-22T09:56:16;94565.63;;;18.07;15.31
21826;BME280;11075;47.944;11.776;2023-02-22T09:58:53;94571.84;;;18.54;13.94
21826;BME280;11075;47.944;11.776;2023-02-22T10:01:30;94571.06;;;18.07;14.77
21826;BME280;11075;47.944;11.776;2023-02-22T10:04:16;94573.81;;;21.45;13.32
21826;BME280;11075;47.944;11.776;2023-02-22T10:09:25;94571.47;;;18.38;14.73
21826;BME280;11075;47.944;11.776;2023-02-22T10:11:58;94568.78;;;21.06;13.57
21826;BME280;11075;47.944;11.776;2023-02-22T10:17:39;94587.63;;;19.37;13.44
21826;BME280;11075;47.944;11.776;2023-02-22T10:23:29;94585.38;;;21.25;12.50
21826;BME280;11075;47.944;11.776;2023-02-22T10:26:19;94584.53;;;19.25;13.39
21826;BME280;11075;47.944;11.776;2023-02-22T10:29:00;94582.97;;;19.27;13.25
21826;BME280;11075;47.944;11.776;2023-02-22T10:31:31;94590.25;;;19.59;12.54
21826;BME280;11075;47.944;11.776;2023-02-22T10:34:04;94588.56;;;19.86;12.78
21826;BME280;11075;47.944;11.776;2023-02-22T10:36:36;94587.72;;;22.15;11.78
21826;BME280;11075;47.944;11.776;2023-02-22T10:39:30;94560.13;;;18.71;14.27
21826;BME280;11075;47.944;11.776;2023-02-22T10:42:03;94565.53;;;21.14;13.34
21826;BME280;11075;47.944;11.776;2023-02-22T10:44:36;94571.41;;;18.84;13.64
21826;BME280;11075;47.944;11.776;2023-02-22T10:47:12;94592.81;;;22.40;10.69
21826;BME280;11075;47.944;11.776;2023-02-22T10:49:47;94581.03;;;20.53;12.63
21826;BME280;11075;47.944;11.776;2023-02-22T10:52:27;94582.16;;;23.51;11.33
21826;BME280;11075;47.944;11.776;2023-02-22T10:54:56;94595.28;;;22.81;11.44
21826;BME280;11075;47.944;11.776;2023-02-22T10:57:40;94577.66;;;21.78;12.27
21826;BME280;11075;47.944;11.776;2023-02-22T11:02:57;94554.72;;;21.04;13.07
21826;BME280;11075;47.944;11.776;2023-02-22T11:05:37;94585.06;;;22.35;10.88
21826;BME280;11075;47.944;11.776;2023-02-22T11:10:52;94573.25;;;23.04;11.23
21826;BME280;11075;47.944;11.776;2023-02-22T11:13:25;94563.84;;;20.52;12.86
21826;BME280;11075;47.944;11.776;2023-02-22T11:16:01;94549.97;;;22.46;11.98
21826;BME280;11075;47.944;11.776;2023-02-22T11:18:43;94560.44;;;21.16;12.22
21826;BME280;11075;47.944;11.776;2023-02-22T11:21:10;94558.13;;;23.16;11.27
21826;BME280;11075;47.944;11.776;2023-02-22T11:23:41;94561.38;;;23.31;11.28
21826;BME280;11075;47.944;11.776;2023-02-22T11:26:13;94564.72;;;21.17;11.38
21826;BME280;11075;47.944;11.776;2023-02-22T11:28:45;94550.41;;;22.44;11.24
21826;BME280;11075;47.944;11.776;2023-02-22T11:31:20;94546.44;;;24.20;11.06
21826;BME280;11075;47.944;11.776;2023-02-22T11:33:50;94549.03;;;21.82;11.45
21826;BME280;11075;47.944;11.776;2023-02-22T11:38:59;94539.72;;;23.13;11.10
21826;BME280;11075;47.944;11.776;2023-02-22T11:41:29;94535.00;;;23.13;11.68
21826;BME280;11075;47.944;11.776;2023-02-22T11:44:13;94533.94;;;23.47;11.36
21826;BME280;11075;47.944;11.776;2023-02-22T11:46:41;94525.94;;;23.72;11.59
21826;BME280;11075;47.944;11.776;2023-02-22T11:49:11;94501.31;;;21.76;13.94
21826;BME280;11075;47.944;11.776;2023-02-22T12:05:28;94471.38;;;18.31;15.45
21826;BME280;11075;47.944;11.776;2023-02-22T12:11:13;94463.97;;;17.54;16.21
21826;BME280;11075;47.944;11.776;2023-02-22T12:19:40;94473.88;;;19.02;14.36
21826;BME280;11075;47.944;11.776;2023-02-22T12:24:48;94500.97;;;17.76;13.98
21826;BME280;11075;47.944;11.776;2023-02-22T12:27:35;94508.44;;;21.13;12.62
21826;BME280;11075;47.944;11.776;2023-02-22T12:30:33;94497.03;;;18.52;13.61
21826;BME280;11075;47.944;11.776;2023-02-22T12:32:59;94487.63;;;18.78;13.69
21826;BME280;11075;47.944;11.776;2023-02-22T12:35:38;94486.28;;;21.34;12.71
21826;BME280;11075;47.944;11.776;2023-02-22T12:38:22;94476.72;;;18.78;14.29
21826;BME280;11075;47.944;11.776;2023-02-22T12:41:10;94478.81;;;21.35;13.05
21826;BME280;11075;47.944;11.776;2023-02-22T12:44:01;94480.34;;;20.37;13.50
21826;BME280;11075;47.944;11.776;2023-02-22T12:46:34;94469.63;;;21.48;13.26
21826;BME280;11075;47.944;11.776;2023-02-22T12:52:02;94464.25;;;18.69;14.29
21826;BME280;11075;47.944;11.776;2023-02-22T12:54:53;94475.59;;;21.93;12.00
21826;BME280;11075;47.944;11.776;2023-02-22T12:57:41;94479.09;;;22.84;11.79
21826;BME280;11075;47.944;11.776;2023-02-22T13:00:26;94482.41;;;21.85;11.47
21826;BME280;11075;47.944;11.776;2023-02-22T13:05:35;94478.09;;;21.57;11.64
21826;BME280;11075;47.944;11.776;2023-02-22T13:14:24;94482.53;;;19.60;12.46
21826;BME280;11075;47.944;11.776;2023-02-22T13:22:26;94464.47;;;21.23;12.11
21826;BME280;11075;47.944;11.776;2023-02-22T13:25:17;94459.34;;;20.98;12.10
21826;BME280;11075;47.944;11.776;2023-02-22T13:30:30;94443.66;;;20.31;13.52
21826;BME280;11075;47.944;11.776;2023-02-22T13:35:44;94449.63;;;20.94;13.10
21826;BME280;11075;47.944;11.776;2023-02-22T13:43:51;94444.47;;;20.28;13.14
21826;BME280;11075;47.944;11.776;2023-02-22T13:51:53;94436.59;;;23.28;11.67
21826;BME280;11075;47.944;11.776;2023-02-22T13:56:56;94443.28;;;22.28;11.95
21826;BME280;11075;47.944;11.776;2023-02-22T13:59:27;94432.16;;;20.81;12.97
21826;BME280;11075;47.944;11.776;2023-02-22T14:01:54;94434.47;;;20.11;13.04
21826;BME280;11075;47.944;11.776;2023-02-22T14:07:00;94439.25;;;21.89;11.95
21826;BME280;11075;47.944;11.776;2023-02-22T14:09:47;94433.56;;;19.31;13.66
21826;BME280;11075;47.944;11.776;2023-02-22T14:17:59;94428.00;;;19.94;13.60
21826;BME280;11075;47.944;11.776;2023-02-22T14:28:59;94429.13;;;21.59;12.24
21826;BME280;11075;47.944;11.776;2023-02-22T14:34:13;94431.50;;;21.04;12.58
21826;BME280;11075;47.944;11.776;2023-02-22T14:39:34;94405.34;;;18.83;14.81
21826;BME280;11075;47.944;11.776;2023-02-22T14:42:09;94400.91;;;20.10;13.88
21826;BME280;11075;47.944;11.776;2023-02-22T14:47:26;94382.69;;;17.70;16.32
21826;BME280;11075;47.944;11.776;2023-02-22T14:50:13;94396.94;;;21.13;13.96
21826;BME280;11075;47.944;11.776;2023-02-22T14:52:44;94398.50;;;21.41;13.68
21826;BME280;11075;47.944;11.776;2023-02-22T14:55:23;94390.22;;;18.64;15.09
21826;BME280;11075;47.944;11.776;2023-02-22T14:58:11;94395.91;;;17.78;15.12
21826;BME280;11075;47.944;11.776;2023-02-22T15:00:49;94391.13;;;18.22;14.97
21826;BME280;11075;47.944;11.776;2023-02-22T15:05:54;94389.19;;;18.19;15.10
21826;BME280;11075;47.944;11.776;2023-02-22T15:08:25;94390.44;;;17.32;15.09
21826;BME280;11075;47.944;11.776;2023-02-22T15:10:54;94386.56;;;17.76;15.16
21826;BME280;11075;47.944;11.776;2023-02-22T15:13:26;94387.06;;;16.38;16.32
21826;BME280;11075;47.944;11.776;2023-02-22T15:15:56;94389.63;;;18.03;15.06
21826;BME280;11075;47.944;11.776;2023-02-22T15:20:57;94397.06;;;20.04;14.03
21826;BME280;11075;47.944;11.776;2023-02-22T15:23:40;94388.09;;;17.45;15.47
21826;BME280;11075;47.944;11.776;2023-02-22T15:26:31;94381.09;;;17.62;15.83
21826;BME280;11075;47.944;11.776;2023-02-22T15:29:34;94399.22;;;19.30;14.53
21826;BME280;11075;47.944;11.776;2023-02-22T15:32:16;94391.59;;;17.92;15.74
21826;BME280;11075;47.944;11.776;2023-02-22T15:34:44;94391.97;;;19.61;14.66
21826;BME280;11075;47.944;11.776;2023-02-22T15:37:19;94380.28;;;18.07;16.08
21826;BME280;11075;47.944;11.776;2023-02-22T15:39:51;94374.88;;;17.90;16.45
21826;BME280;11075;47.944;11.776;2023-02-22T15:42:26;94367.09;;;17.85;16.49
21826;BME280;11075;47.944;11.776;2023-02-22T15:44:56;94374.78;;;18.18;16.21
21826;BME280;11075;47.944;11.776;2023-02-22T15:47:28;94377.13;;;18.12;16.35